Аэропорт: Орск. Орск

ICAO: UWOR

METAR:
2021-07-28 14:00:00
UWOR 281400Z 31005MPS 9999 SCT050CB 26/08 Q1009 R25/CLRD65 NOSIG RMK QFE733/0978
METAR:
2021-07-28 10:59:00
TAF UWOR 281059Z 2812/2821 31007G14MPS 9999 SCT020CB BKN030 TX28/2812Z TN16/2821Z TEMPO 2812/2819 28007G17MPS 6000 -TSRA BKN016CB TEMPO 2819/2821 01005G14MPS